sensor_id;sensor_type;location;lat;lon;timestamp;P1;durP1;ratioP1;P2;durP2;ratioP2
64252;SDS011;50592;52.958;-7.470;2022-12-18T00:00:41;12.68;;;5.70;;
64252;SDS011;50592;52.958;-7.470;2022-12-18T00:03:08;13.38;;;6.65;;
64252;SDS011;50592;52.958;-7.470;2022-12-18T00:05:35;18.55;;;6.05;;
64252;SDS011;50592;52.958;-7.470;2022-12-18T00:08:01;8.57;;;5.43;;
64252;SDS011;50592;52.958;-7.470;2022-12-18T00:10:28;13.05;;;4.70;;
64252;SDS011;50592;52.958;-7.470;2022-12-18T00:12:54;8.82;;;4.30;;
64252;SDS011;50592;52.958;-7.470;2022-12-18T00:15:20;10.23;;;4.25;;
64252;SDS011;50592;52.958;-7.470;2022-12-18T00:17:46;11.73;;;5.47;;
64252;SDS011;50592;52.958;-7.470;2022-12-18T00:20:12;9.73;;;5.25;;
64252;SDS011;50592;52.958;-7.470;2022-12-18T00:22:37;10.32;;;4.43;;
64252;SDS011;50592;52.958;-7.470;2022-12-18T00:25:03;7.20;;;4.15;;
64252;SDS011;50592;52.958;-7.470;2022-12-18T00:27:29;8.65;;;4.55;;
64252;SDS011;50592;52.958;-7.470;2022-12-18T00:29:55;8.48;;;3.25;;
64252;SDS011;50592;52.958;-7.470;2022-12-18T00:32:21;11.10;;;3.40;;
64252;SDS011;50592;52.958;-7.470;2022-12-18T00:34:46;9.50;;;3.10;;
64252;SDS011;50592;52.958;-7.470;2022-12-18T00:37:14;10.57;;;4.00;;
64252;SDS011;50592;52.958;-7.470;2022-12-18T00:39:40;6.10;;;2.40;;
64252;SDS011;50592;52.958;-7.470;2022-12-18T00:42:05;5.18;;;2.80;;
64252;SDS011;50592;52.958;-7.470;2022-12-18T00:44:51;14.40;;;3.35;;
64252;SDS011;50592;52.958;-7.470;2022-12-18T00:47:17;10.65;;;3.00;;
64252;SDS011;50592;52.958;-7.470;2022-12-18T00:49:43;9.25;;;2.85;;
64252;SDS011;50592;52.958;-7.470;2022-12-18T00:52:08;11.63;;;3.35;;
64252;SDS011;50592;52.958;-7.470;2022-12-18T00:54:35;23.35;;;4.30;;
64252;SDS011;50592;52.958;-7.470;2022-12-18T00:57:00;11.52;;;3.38;;
64252;SDS011;50592;52.958;-7.470;2022-12-18T00:59:26;9.27;;;3.63;;
64252;SDS011;50592;52.958;-7.470;2022-12-18T01:01:52;13.23;;;3.83;;
64252;SDS011;50592;52.958;-7.470;2022-12-18T01:04:19;10.60;;;3.70;;
64252;SDS011;50592;52.958;-7.470;2022-12-18T01:06:45;13.20;;;3.85;;
64252;SDS011;50592;52.958;-7.470;2022-12-18T01:09:13;11.00;;;3.50;;
64252;SDS011;50592;52.958;-7.470;2022-12-18T01:11:39;14.68;;;3.53;;
64252;SDS011;50592;52.958;-7.470;2022-12-18T01:14:05;11.45;;;3.72;;
64252;SDS011;50592;52.958;-7.470;2022-12-18T01:16:31;11.70;;;3.30;;
64252;SDS011;50592;52.958;-7.470;2022-12-18T01:18:57;10.18;;;3.33;;
64252;SDS011;50592;52.958;-7.470;2022-12-18T01:21:23;9.25;;;3.75;;
64252;SDS011;50592;52.958;-7.470;2022-12-18T01:23:55;6.38;;;2.80;;
64252;SDS011;50592;52.958;-7.470;2022-12-18T01:26:23;8.95;;;2.72;;
64252;SDS011;50592;52.958;-7.470;2022-12-18T01:28:50;17.08;;;2.90;;
64252;SDS011;50592;52.958;-7.470;2022-12-18T01:33:46;9.95;;;2.40;;
64252;SDS011;50592;52.958;-7.470;2022-12-18T01:36:27;10.98;;;3.00;;
64252;SDS011;50592;52.958;-7.470;2022-12-18T01:38:55;10.15;;;2.60;;
64252;SDS011;50592;52.958;-7.470;2022-12-18T01:41:26;9.02;;;2.22;;
64252;SDS011;50592;52.958;-7.470;2022-12-18T01:49:56;7.68;;;2.10;;
64252;SDS011;50592;52.958;-7.470;2022-12-18T01:52:24;10.60;;;1.95;;
64252;SDS011;50592;52.958;-7.470;2022-12-18T01:54:53;5.72;;;2.20;;
64252;SDS011;50592;52.958;-7.470;2022-12-18T01:57:20;9.75;;;2.28;;
64252;SDS011;50592;52.958;-7.470;2022-12-18T01:59:48;7.55;;;2.25;;
64252;SDS011;50592;52.958;-7.470;2022-12-18T02:02:18;9.55;;;2.38;;
64252;SDS011;50592;52.958;-7.470;2022-12-18T02:04:45;13.70;;;2.30;;
64252;SDS011;50592;52.958;-7.470;2022-12-18T02:07:14;7.85;;;1.83;;
64252;SDS011;50592;52.958;-7.470;2022-12-18T02:09:53;7.13;;;2.33;;
64252;SDS011;50592;52.958;-7.470;2022-12-18T02:12:25;8.75;;;1.80;;
64252;SDS011;50592;52.958;-7.470;2022-12-18T02:17:51;10.27;;;2.42;;
64252;SDS011;50592;52.958;-7.470;2022-12-18T02:20:28;8.57;;;2.13;;
64252;SDS011;50592;52.958;-7.470;2022-12-18T02:23:24;5.35;;;1.75;;
64252;SDS011;50592;52.958;-7.470;2022-12-18T02:26:07;9.30;;;2.10;;
64252;SDS011;50592;52.958;-7.470;2022-12-18T02:28:54;13.88;;;2.22;;
64252;SDS011;50592;52.958;-7.470;2022-12-18T02:33:55;13.30;;;2.65;;
64252;SDS011;50592;52.958;-7.470;2022-12-18T02:36:23;8.45;;;1.90;;
64252;SDS011;50592;52.958;-7.470;2022-12-18T02:38:53;11.75;;;2.10;;
64252;SDS011;50592;52.958;-7.470;2022-12-18T02:41:24;10.32;;;2.83;;
64252;SDS011;50592;52.958;-7.470;2022-12-18T02:44:00;5.53;;;1.67;;
64252;SDS011;50592;52.958;-7.470;2022-12-18T02:51:53;14.10;;;2.22;;
64252;SDS011;50592;52.958;-7.470;2022-12-18T03:00:39;15.07;;;1.80;;
64252;SDS011;50592;52.958;-7.470;2022-12-18T03:03:14;7.55;;;1.45;;
64252;SDS011;50592;52.958;-7.470;2022-12-18T03:05:49;8.73;;;1.88;;
64252;SDS011;50592;52.958;-7.470;2022-12-18T03:10:53;9.85;;;1.60;;
64252;SDS011;50592;52.958;-7.470;2022-12-18T03:13:29;9.02;;;2.25;;
64252;SDS011;50592;52.958;-7.470;2022-12-18T03:15:58;10.73;;;1.80;;
64252;SDS011;50592;52.958;-7.470;2022-12-18T03:18:36;10.50;;;1.60;;
64252;SDS011;50592;52.958;-7.470;2022-12-18T03:21:07;8.98;;;1.83;;
64252;SDS011;50592;52.958;-7.470;2022-12-18T03:23:42;17.40;;;2.00;;
64252;SDS011;50592;52.958;-7.470;2022-12-18T03:26:15;4.47;;;1.35;;
64252;SDS011;50592;52.958;-7.470;2022-12-18T03:28:56;6.25;;;1.52;;
64252;SDS011;50592;52.958;-7.470;2022-12-18T03:31:28;9.95;;;1.23;;
64252;SDS011;50592;52.958;-7.470;2022-12-18T03:34:01;9.18;;;1.52;;
64252;SDS011;50592;52.958;-7.470;2022-12-18T03:36:39;4.20;;;1.10;;
64252;SDS011;50592;52.958;-7.470;2022-12-18T03:39:06;7.05;;;1.40;;
64252;SDS011;50592;52.958;-7.470;2022-12-18T03:47:06;11.85;;;1.25;;
64252;SDS011;50592;52.958;-7.470;2022-12-18T03:49:41;9.07;;;2.10;;
64252;SDS011;50592;52.958;-7.470;2022-12-18T03:55:21;10.82;;;1.50;;
64252;SDS011;50592;52.958;-7.470;2022-12-18T03:57:56;8.10;;;1.23;;
64252;SDS011;50592;52.958;-7.470;2022-12-18T04:00:25;8.25;;;1.52;;
64252;SDS011;50592;52.958;-7.470;2022-12-18T04:03:03;9.00;;;1.23;;
64252;SDS011;50592;52.958;-7.470;2022-12-18T04:05:38;3.78;;;0.95;;
64252;SDS011;50592;52.958;-7.470;2022-12-18T04:08:06;7.53;;;1.02;;
64252;SDS011;50592;52.958;-7.470;2022-12-18T04:10:36;5.35;;;2.20;;
64252;SDS011;50592;52.958;-7.470;2022-12-18T04:13:02;8.65;;;1.27;;
64252;SDS011;50592;52.958;-7.470;2022-12-18T04:15:28;7.68;;;2.20;;
64252;SDS011;50592;52.958;-7.470;2022-12-18T04:17:56;4.05;;;1.10;;
64252;SDS011;50592;52.958;-7.470;2022-12-18T04:20:24;7.03;;;1.23;;
64252;SDS011;50592;52.958;-7.470;2022-12-18T04:22:49;7.93;;;1.05;;
64252;SDS011;50592;52.958;-7.470;2022-12-18T04:25:17;6.45;;;0.85;;
64252;SDS011;50592;52.958;-7.470;2022-12-18T04:27:56;3.30;;;0.85;;
64252;SDS011;50592;52.958;-7.470;2022-12-18T04:30:22;6.93;;;1.35;;
64252;SDS011;50592;52.958;-7.470;2022-12-18T04:32:48;8.73;;;1.27;;
64252;SDS011;50592;52.958;-7.470;2022-12-18T04:35:14;9.10;;;2.30;;
64252;SDS011;50592;52.958;-7.470;2022-12-18T04:37:43;4.50;;;1.00;;
64252;SDS011;50592;52.958;-7.470;2022-12-18T04:40:09;5.00;;;0.95;;
64252;SDS011;50592;52.958;-7.470;2022-12-18T04:42:40;5.00;;;1.00;;
64252;SDS011;50592;52.958;-7.470;2022-12-18T04:45:06;5.55;;;0.88;;
64252;SDS011;50592;52.958;-7.470;2022-12-18T04:47:33;6.72;;;1.45;;
64252;SDS011;50592;52.958;-7.470;2022-12-18T04:49:58;4.30;;;0.82;;
64252;SDS011;50592;52.958;-7.470;2022-12-18T04:52:24;4.93;;;1.17;;
64252;SDS011;50592;52.958;-7.470;2022-12-18T04:54:50;8.57;;;1.00;;
64252;SDS011;50592;52.958;-7.470;2022-12-18T04:57:16;5.95;;;0.90;;
64252;SDS011;50592;52.958;-7.470;2022-12-18T04:59:43;9.57;;;2.30;;
64252;SDS011;50592;52.958;-7.470;2022-12-18T05:02:09;9.45;;;0.93;;
64252;SDS011;50592;52.958;-7.470;2022-12-18T05:04:36;9.05;;;1.08;;
64252;SDS011;50592;52.958;-7.470;2022-12-18T05:07:01;10.35;;;1.33;;
64252;SDS011;50592;52.958;-7.470;2022-12-18T05:09:27;8.82;;;1.52;;
64252;SDS011;50592;52.958;-7.470;2022-12-18T05:11:53;7.30;;;1.10;;
64252;SDS011;50592;52.958;-7.470;2022-12-18T05:14:19;8.75;;;1.83;;
64252;SDS011;50592;52.958;-7.470;2022-12-18T05:16:45;5.75;;;1.45;;
64252;SDS011;50592;52.958;-7.470;2022-12-18T05:19:10;8.68;;;1.75;;
64252;SDS011;50592;52.958;-7.470;2022-12-18T05:21:36;7.95;;;1.25;;
64252;SDS011;50592;52.958;-7.470;2022-12-18T05:24:02;4.95;;;0.90;;
64252;SDS011;50592;52.958;-7.470;2022-12-18T05:26:28;6.70;;;1.02;;
64252;SDS011;50592;52.958;-7.470;2022-12-18T05:28:54;6.28;;;1.25;;
64252;SDS011;50592;52.958;-7.470;2022-12-18T05:31:21;9.38;;;1.15;;
64252;SDS011;50592;52.958;-7.470;2022-12-18T05:33:47;11.45;;;1.88;;
64252;SDS011;50592;52.958;-7.470;2022-12-18T05:36:15;4.57;;;1.25;;
64252;SDS011;50592;52.958;-7.470;2022-12-18T05:38:41;9.30;;;3.20;;
64252;SDS011;50592;52.958;-7.470;2022-12-18T05:41:07;6.10;;;1.67;;
64252;SDS011;50592;52.958;-7.470;2022-12-18T05:43:34;8.27;;;1.88;;
64252;SDS011;50592;52.958;-7.470;2022-12-18T05:46:10;9.20;;;1.90;;
64252;SDS011;50592;52.958;-7.470;2022-12-18T05:48:38;5.93;;;1.90;;
64252;SDS011;50592;52.958;-7.470;2022-12-18T05:51:06;5.18;;;1.70;;
64252;SDS011;50592;52.958;-7.470;2022-12-18T05:53:33;3.78;;;1.50;;
64252;SDS011;50592;52.958;-7.470;2022-12-18T05:56:04;6.47;;;1.83;;
64252;SDS011;50592;52.958;-7.470;2022-12-18T05:58:32;4.03;;;1.67;;
64252;SDS011;50592;52.958;-7.470;2022-12-18T06:01:05;4.88;;;1.90;;
64252;SDS011;50592;52.958;-7.470;2022-12-18T06:03:32;6.18;;;2.30;;
64252;SDS011;50592;52.958;-7.470;2022-12-18T06:05:58;6.43;;;2.47;;
64252;SDS011;50592;52.958;-7.470;2022-12-18T06:08:24;4.35;;;1.95;;
64252;SDS011;50592;52.958;-7.470;2022-12-18T06:10:50;13.93;;;2.30;;
64252;SDS011;50592;52.958;-7.470;2022-12-18T06:13:18;10.30;;;2.17;;
64252;SDS011;50592;52.958;-7.470;2022-12-18T06:15:44;7.45;;;2.63;;
64252;SDS011;50592;52.958;-7.470;2022-12-18T06:18:10;6.95;;;2.75;;
64252;SDS011;50592;52.958;-7.470;2022-12-18T06:20:36;6.90;;;2.72;;
64252;SDS011;50592;52.958;-7.470;2022-12-18T06:23:05;7.90;;;2.55;;
64252;SDS011;50592;52.958;-7.470;2022-12-18T06:25:31;7.38;;;2.83;;
64252;SDS011;50592;52.958;-7.470;2022-12-18T06:27:58;7.15;;;3.05;;
64252;SDS011;50592;52.958;-7.470;2022-12-18T06:30:24;9.90;;;3.63;;
64252;SDS011;50592;52.958;-7.470;2022-12-18T06:32:50;15.43;;;4.32;;
64252;SDS011;50592;52.958;-7.470;2022-12-18T06:35:16;13.00;;;3.92;;
64252;SDS011;50592;52.958;-7.470;2022-12-18T06:37:42;10.52;;;3.88;;
64252;SDS011;50592;52.958;-7.470;2022-12-18T06:40:08;13.18;;;4.18;;
64252;SDS011;50592;52.958;-7.470;2022-12-18T06:42:34;13.40;;;4.22;;
64252;SDS011;50592;52.958;-7.470;2022-12-18T06:45:00;6.32;;;3.13;;
64252;SDS011;50592;52.958;-7.470;2022-12-18T06:47:26;8.25;;;3.22;;
64252;SDS011;50592;52.958;-7.470;2022-12-18T06:49:52;12.43;;;3.95;;
64252;SDS011;50592;52.958;-7.470;2022-12-18T06:52:18;11.57;;;3.97;;
64252;SDS011;50592;52.958;-7.470;2022-12-18T06:54:43;9.13;;;4.00;;
64252;SDS011;50592;52.958;-7.470;2022-12-18T06:57:09;9.30;;;3.83;;
64252;SDS011;50592;52.958;-7.470;2022-12-18T06:59:35;9.95;;;3.70;;
64252;SDS011;50592;52.958;-7.470;2022-12-18T07:02:01;11.80;;;4.30;;
64252;SDS011;50592;52.958;-7.470;2022-12-18T07:04:29;9.52;;;4.15;;
64252;SDS011;50592;52.958;-7.470;2022-12-18T07:06:55;6.55;;;4.10;;
64252;SDS011;50592;52.958;-7.470;2022-12-18T07:09:21;8.98;;;4.10;;
64252;SDS011;50592;52.958;-7.470;2022-12-18T07:11:47;7.78;;;3.63;;
64252;SDS011;50592;52.958;-7.470;2022-12-18T07:14:13;8.25;;;3.78;;
64252;SDS011;50592;52.958;-7.470;2022-12-18T07:16:38;6.75;;;3.42;;
64252;SDS011;50592;52.958;-7.470;2022-12-18T07:19:04;5.78;;;2.63;;
64252;SDS011;50592;52.958;-7.470;2022-12-18T07:21:30;7.07;;;2.67;;
64252;SDS011;50592;52.958;-7.470;2022-12-18T07:23:56;11.65;;;3.03;;
64252;SDS011;50592;52.958;-7.470;2022-12-18T07:26:21;5.53;;;2.70;;
64252;SDS011;50592;52.958;-7.470;2022-12-18T07:28:48;8.40;;;3.28;;
64252;SDS011;50592;52.958;-7.470;2022-12-18T07:31:15;9.52;;;3.33;;
64252;SDS011;50592;52.958;-7.470;2022-12-18T07:33:44;8.27;;;3.33;;
64252;SDS011;50592;52.958;-7.470;2022-12-18T07:36:10;7.43;;;3.45;;
64252;SDS011;50592;52.958;-7.470;2022-12-18T07:38:36;9.15;;;3.22;;
64252;SDS011;50592;52.958;-7.470;2022-12-18T07:41:06;10.48;;;2.95;;
64252;SDS011;50592;52.958;-7.470;2022-12-18T07:43:34;12.55;;;3.03;;
64252;SDS011;50592;52.958;-7.470;2022-12-18T07:46:01;6.50;;;2.30;;
64252;SDS011;50592;52.958;-7.470;2022-12-18T07:48:30;4.45;;;2.13;;
64252;SDS011;50592;52.958;-7.470;2022-12-18T07:51:03;5.18;;;1.98;;
64252;SDS011;50592;52.958;-7.470;2022-12-18T07:53:30;2.47;;;1.55;;
64252;SDS011;50592;52.958;-7.470;2022-12-18T07:56:00;5.85;;;2.35;;
64252;SDS011;50592;52.958;-7.470;2022-12-18T07:58:27;2.53;;;1.65;;
64252;SDS011;50592;52.958;-7.470;2022-12-18T08:00:54;5.13;;;2.42;;
64252;SDS011;50592;52.958;-7.470;2022-12-18T08:03:20;3.47;;;1.67;;
64252;SDS011;50592;52.958;-7.470;2022-12-18T08:05:45;4.35;;;2.22;;
64252;SDS011;50592;52.958;-7.470;2022-12-18T08:08:14;4.22;;;1.85;;
64252;SDS011;50592;52.958;-7.470;2022-12-18T08:10:39;5.70;;;2.00;;
64252;SDS011;50592;52.958;-7.470;2022-12-18T08:13:05;3.38;;;1.92;;
64252;SDS011;50592;52.958;-7.470;2022-12-18T08:15:31;6.68;;;2.00;;
64252;SDS011;50592;52.958;-7.470;2022-12-18T08:17:57;8.30;;;1.80;;
64252;SDS011;50592;52.958;-7.470;2022-12-18T08:20:22;3.65;;;1.50;;
64252;SDS011;50592;52.958;-7.470;2022-12-18T08:22:48;4.80;;;2.25;;
64252;SDS011;50592;52.958;-7.470;2022-12-18T08:25:14;4.50;;;2.03;;
64252;SDS011;50592;52.958;-7.470;2022-12-18T08:27:40;3.92;;;2.40;;
64252;SDS011;50592;52.958;-7.470;2022-12-18T08:30:06;7.40;;;2.45;;
64252;SDS011;50592;52.958;-7.470;2022-12-18T08:32:33;6.03;;;1.92;;
64252;SDS011;50592;52.958;-7.470;2022-12-18T08:34:59;3.75;;;1.90;;
64252;SDS011;50592;52.958;-7.470;2022-12-18T08:37:25;9.05;;;2.05;;
64252;SDS011;50592;52.958;-7.470;2022-12-18T08:39:50;3.40;;;1.52;;
64252;SDS011;50592;52.958;-7.470;2022-12-18T08:42:16;4.40;;;1.50;;
64252;SDS011;50592;52.958;-7.470;2022-12-18T08:45:00;4.97;;;1.60;;
64252;SDS011;50592;52.958;-7.470;2022-12-18T08:47:27;4.20;;;1.45;;
64252;SDS011;50592;52.958;-7.470;2022-12-18T08:49:52;1.55;;;0.90;;
64252;SDS011;50592;52.958;-7.470;2022-12-18T08:52:18;5.72;;;1.50;;
64252;SDS011;50592;52.958;-7.470;2022-12-18T08:54:44;4.60;;;1.42;;
64252;SDS011;50592;52.958;-7.470;2022-12-18T08:57:10;5.03;;;1.50;;
64252;SDS011;50592;52.958;-7.470;2022-12-18T08:59:35;4.38;;;1.45;;
64252;SDS011;50592;52.958;-7.470;2022-12-18T09:02:01;2.30;;;1.23;;
64252;SDS011;50592;52.958;-7.470;2022-12-18T09:04:27;2.65;;;0.98;;
64252;SDS011;50592;52.958;-7.470;2022-12-18T09:06:55;1.85;;;0.90;;
64252;SDS011;50592;52.958;-7.470;2022-12-18T09:09:21;2.40;;;0.88;;
64252;SDS011;50592;52.958;-7.470;2022-12-18T09:11:47;1.52;;;0.75;;
64252;SDS011;50592;52.958;-7.470;2022-12-18T09:14:13;2.15;;;0.85;;
64252;SDS011;50592;52.958;-7.470;2022-12-18T09:16:38;1.45;;;0.70;;
64252;SDS011;50592;52.958;-7.470;2022-12-18T09:19:05;2.45;;;0.52;;
64252;SDS011;50592;52.958;-7.470;2022-12-18T09:21:33;2.05;;;0.70;;
64252;SDS011;50592;52.958;-7.470;2022-12-18T09:24:03;1.33;;;0.65;;
64252;SDS011;50592;52.958;-7.470;2022-12-18T09:26:29;0.50;;;0.50;;
64252;SDS011;50592;52.958;-7.470;2022-12-18T09:28:55;0.32;;;0.22;;
64252;SDS011;50592;52.958;-7.470;2022-12-18T09:31:22;1.05;;;0.50;;
64252;SDS011;50592;52.958;-7.470;2022-12-18T09:33:49;1.23;;;0.52;;
64252;SDS011;50592;52.958;-7.470;2022-12-18T09:36:15;0.60;;;0.30;;
64252;SDS011;50592;52.958;-7.470;2022-12-18T09:38:43;1.15;;;0.55;;
64252;SDS011;50592;52.958;-7.470;2022-12-18T09:43:54;0.77;;;0.40;;
64252;SDS011;50592;52.958;-7.470;2022-12-18T09:46:33;1.27;;;0.40;;
64252;SDS011;50592;52.958;-7.470;2022-12-18T09:49:05;2.88;;;0.52;;
64252;SDS011;50592;52.958;-7.470;2022-12-18T09:51:47;1.25;;;0.50;;
64252;SDS011;50592;52.958;-7.470;2022-12-18T09:54:24;1.35;;;0.40;;
64252;SDS011;50592;52.958;-7.470;2022-12-18T09:56:55;1.30;;;0.50;;
64252;SDS011;50592;52.958;-7.470;2022-12-18T09:59:23;0.57;;;0.28;;
64252;SDS011;50592;52.958;-7.470;2022-12-18T10:01:52;0.80;;;0.50;;
64252;SDS011;50592;52.958;-7.470;2022-12-18T10:04:18;1.55;;;0.60;;
64252;SDS011;50592;52.958;-7.470;2022-12-18T10:09:28;1.58;;;0.77;;
64252;SDS011;50592;52.958;-7.470;2022-12-18T10:12:30;1.05;;;0.60;;
64252;SDS011;50592;52.958;-7.470;2022-12-18T10:18:01;1.10;;;0.57;;
64252;SDS011;50592;52.958;-7.470;2022-12-18T10:28:37;0.93;;;0.40;;
64252;SDS011;50592;52.958;-7.470;2022-12-18T10:31:05;0.40;;;0.30;;
64252;SDS011;50592;52.958;-7.470;2022-12-18T10:33:53;0.80;;;0.30;;
64252;SDS011;50592;52.958;-7.470;2022-12-18T10:36:20;0.90;;;0.35;;
64252;SDS011;50592;52.958;-7.470;2022-12-18T10:38:46;0.40;;;0.40;;
64252;SDS011;50592;52.958;-7.470;2022-12-18T10:43:51;0.30;;;0.20;;
64252;SDS011;50592;52.958;-7.470;2022-12-18T10:46:36;1.88;;;0.35;;
64252;SDS011;50592;52.958;-7.470;2022-12-18T10:49:03;0.82;;;0.40;;
64252;SDS011;50592;52.958;-7.470;2022-12-18T10:51:31;1.38;;;0.30;;
64252;SDS011;50592;52.958;-7.470;2022-12-18T10:54:00;0.40;;;0.40;;
64252;SDS011;50592;52.958;-7.470;2022-12-18T10:56:31;1.00;;;0.40;;
64252;SDS011;50592;52.958;-7.470;2022-12-18T10:59:04;1.83;;;0.17;;
64252;SDS011;50592;52.958;-7.470;2022-12-18T11:01:53;0.40;;;0.30;;
64252;SDS011;50592;52.958;-7.470;2022-12-18T11:04:25;0.55;;;0.30;;
64252;SDS011;50592;52.958;-7.470;2022-12-18T11:09:22;0.38;;;0.20;;
64252;SDS011;50592;52.958;-7.470;2022-12-18T11:11:57;1.00;;;0.45;;
64252;SDS011;50592;52.958;-7.470;2022-12-18T11:16:54;1.15;;;0.40;;
64252;SDS011;50592;52.958;-7.470;2022-12-18T11:22:03;0.28;;;0.20;;
64252;SDS011;50592;52.958;-7.470;2022-12-18T11:27:27;2.20;;;0.50;;
64252;SDS011;50592;52.958;-7.470;2022-12-18T11:30:06;0.73;;;0.40;;
64252;SDS011;50592;52.958;-7.470;2022-12-18T11:37:33;1.17;;;0.40;;
64252;SDS011;50592;52.958;-7.470;2022-12-18T11:40:03;0.30;;;0.30;;
64252;SDS011;50592;52.958;-7.470;2022-12-18T11:42:35;1.33;;;0.22;;
64252;SDS011;50592;52.958;-7.470;2022-12-18T11:50:17;0.98;;;0.22;;
64252;SDS011;50592;52.958;-7.470;2022-12-18T11:52:47;0.43;;;0.20;;
64252;SDS011;50592;52.958;-7.470;2022-12-18T11:55:14;1.67;;;0.30;;
64252;SDS011;50592;52.958;-7.470;2022-12-18T12:00:31;1.48;;;0.40;;
64252;SDS011;50592;52.958;-7.470;2022-12-18T12:06:10;0.93;;;0.30;;
64252;SDS011;50592;52.958;-7.470;2022-12-18T12:22:13;0.55;;;0.40;;
64252;SDS011;50592;52.958;-7.470;2022-12-18T12:38:05;0.68;;;0.28;;
64252;SDS011;50592;52.958;-7.470;2022-12-18T12:40:42;0.17;;;0.17;;
64252;SDS011;50592;52.958;-7.470;2022-12-18T12:51:01;0.30;;;0.10;;
64252;SDS011;50592;52.958;-7.470;2022-12-18T12:53:34;1.65;;;0.10;;
64252;SDS011;50592;52.958;-7.470;2022-12-18T12:56:03;1.00;;;0.10;;
64252;SDS011;50592;52.958;-7.470;2022-12-18T12:58:49;1.25;;;0.50;;
64252;SDS011;50592;52.958;-7.470;2022-12-18T13:12:36;1.75;;;0.28;;
64252;SDS011;50592;52.958;-7.470;2022-12-18T13:15:21;0.65;;;0.13;;
64252;SDS011;50592;52.958;-7.470;2022-12-18T13:18:02;1.48;;;0.30;;
64252;SDS011;50592;52.958;-7.470;2022-12-18T13:20:49;1.00;;;0.40;;
64252;SDS011;50592;52.958;-7.470;2022-12-18T13:34:17;1.05;;;0.50;;
64252;SDS011;50592;52.958;-7.470;2022-12-18T13:36:46;1.92;;;0.70;;
64252;SDS011;50592;52.958;-7.470;2022-12-18T13:41:49;1.55;;;0.45;;
64252;SDS011;50592;52.958;-7.470;2022-12-18T13:44:35;0.90;;;0.73;;
64252;SDS011;50592;52.958;-7.470;2022-12-18T13:47:24;0.50;;;0.50;;
64252;SDS011;50592;52.958;-7.470;2022-12-18T13:50:09;3.55;;;0.85;;
64252;SDS011;50592;52.958;-7.470;2022-12-18T13:52:56;1.98;;;0.93;;
64252;SDS011;50592;52.958;-7.470;2022-12-18T13:55:25;2.53;;;1.00;;
64252;SDS011;50592;52.958;-7.470;2022-12-18T13:58:02;1.58;;;0.90;;
64252;SDS011;50592;52.958;-7.470;2022-12-18T14:00:29;10.55;;;1.20;;
64252;SDS011;50592;52.958;-7.470;2022-12-18T14:02:56;4.38;;;1.00;;
64252;SDS011;50592;52.958;-7.470;2022-12-18T14:05:24;1.55;;;0.85;;
64252;SDS011;50592;52.958;-7.470;2022-12-18T14:07:52;3.35;;;1.20;;
64252;SDS011;50592;52.958;-7.470;2022-12-18T14:10:19;3.97;;;1.10;;
64252;SDS011;50592;52.958;-7.470;2022-12-18T14:12:48;2.28;;;0.95;;
64252;SDS011;50592;52.958;-7.470;2022-12-18T14:17:59;2.50;;;1.35;;
64252;SDS011;50592;52.958;-7.470;2022-12-18T14:20:28;3.33;;;1.58;;
64252;SDS011;50592;52.958;-7.470;2022-12-18T14:22:56;3.88;;;1.38;;
64252;SDS011;50592;52.958;-7.470;2022-12-18T14:25:24;2.47;;;1.27;;
64252;SDS011;50592;52.958;-7.470;2022-12-18T14:27:53;4.07;;;1.40;;
64252;SDS011;50592;52.958;-7.470;2022-12-18T14:30:41;5.00;;;1.30;;
64252;SDS011;50592;52.958;-7.470;2022-12-18T14:35:37;3.72;;;1.25;;
64252;SDS011;50592;52.958;-7.470;2022-12-18T14:43:31;2.63;;;1.88;;
64252;SDS011;50592;52.958;-7.470;2022-12-18T14:45:59;4.78;;;1.77;;
64252;SDS011;50592;52.958;-7.470;2022-12-18T14:51:12;4.00;;;1.80;;
64252;SDS011;50592;52.958;-7.470;2022-12-18T14:53:47;5.10;;;2.35;;
64252;SDS011;50592;52.958;-7.470;2022-12-18T14:56:25;3.03;;;2.47;;
64252;SDS011;50592;52.958;-7.470;2022-12-18T14:59:00;7.90;;;2.90;;
64252;SDS011;50592;52.958;-7.470;2022-12-18T15:01:32;5.97;;;2.40;;
64252;SDS011;50592;52.958;-7.470;2022-12-18T15:04:00;6.25;;;2.53;;
64252;SDS011;50592;52.958;-7.470;2022-12-18T15:08:55;5.45;;;2.60;;
64252;SDS011;50592;52.958;-7.470;2022-12-18T15:11:35;5.75;;;2.40;;
64252;SDS011;50592;52.958;-7.470;2022-12-18T15:14:23;6.70;;;2.83;;
64252;SDS011;50592;52.958;-7.470;2022-12-18T15:16:57;5.50;;;2.58;;
64252;SDS011;50592;52.958;-7.470;2022-12-18T15:19:36;5.53;;;2.97;;
64252;SDS011;50592;52.958;-7.470;2022-12-18T15:22:11;4.03;;;2.42;;
64252;SDS011;50592;52.958;-7.470;2022-12-18T15:24:43;12.38;;;2.97;;
64252;SDS011;50592;52.958;-7.470;2022-12-18T15:32:36;6.72;;;4.03;;
64252;SDS011;50592;52.958;-7.470;2022-12-18T15:37:41;10.65;;;4.00;;
64252;SDS011;50592;52.958;-7.470;2022-12-18T15:40:11;7.28;;;5.82;;
64252;SDS011;50592;52.958;-7.470;2022-12-18T15:42:43;9.65;;;4.90;;
64252;SDS011;50592;52.958;-7.470;2022-12-18T15:45:28;9.07;;;6.13;;
64252;SDS011;50592;52.958;-7.470;2022-12-18T15:47:54;13.98;;;6.97;;
64252;SDS011;50592;52.958;-7.470;2022-12-18T15:50:20;16.92;;;8.32;;
64252;SDS011;50592;52.958;-7.470;2022-12-18T15:52:46;12.85;;;7.57;;
64252;SDS011;50592;52.958;-7.470;2022-12-18T15:55:24;14.95;;;6.82;;
64252;SDS011;50592;52.958;-7.470;2022-12-18T15:58:08;13.18;;;6.50;;
64252;SDS011;50592;52.958;-7.470;2022-12-18T16:00:36;27.08;;;6.03;;
64252;SDS011;50592;52.958;-7.470;2022-12-18T16:03:04;26.25;;;6.97;;
64252;SDS011;50592;52.958;-7.470;2022-12-18T16:05:30;13.98;;;6.80;;
64252;SDS011;50592;52.958;-7.470;2022-12-18T16:07:56;16.85;;;5.70;;
64252;SDS011;50592;52.958;-7.470;2022-12-18T16:10:24;14.68;;;6.18;;
64252;SDS011;50592;52.958;-7.470;2022-12-18T16:12:50;9.40;;;4.38;;
64252;SDS011;50592;52.958;-7.470;2022-12-18T16:15:16;8.18;;;4.45;;
64252;SDS011;50592;52.958;-7.470;2022-12-18T16:17:42;4.95;;;4.40;;
64252;SDS011;50592;52.958;-7.470;2022-12-18T16:20:16;6.50;;;4.30;;
64252;SDS011;50592;52.958;-7.470;2022-12-18T16:22:45;5.20;;;3.50;;
64252;SDS011;50592;52.958;-7.470;2022-12-18T16:25:21;6.07;;;3.35;;
64252;SDS011;50592;52.958;-7.470;2022-12-18T16:27:49;5.53;;;3.80;;
64252;SDS011;50592;52.958;-7.470;2022-12-18T16:30:16;8.35;;;4.70;;
64252;SDS011;50592;52.958;-7.470;2022-12-18T16:32:44;5.55;;;4.18;;
64252;SDS011;50592;52.958;-7.470;2022-12-18T16:35:14;6.82;;;4.95;;
64252;SDS011;50592;52.958;-7.470;2022-12-18T16:37:41;5.22;;;4.50;;
64252;SDS011;50592;52.958;-7.470;2022-12-18T16:40:08;6.85;;;4.65;;
64252;SDS011;50592;52.958;-7.470;2022-12-18T16:42:37;6.13;;;4.82;;
64252;SDS011;50592;52.958;-7.470;2022-12-18T16:45:05;6.32;;;5.00;;
64252;SDS011;50592;52.958;-7.470;2022-12-18T16:47:32;8.35;;;5.47;;
64252;SDS011;50592;52.958;-7.470;2022-12-18T16:49:59;7.13;;;4.95;;
64252;SDS011;50592;52.958;-7.470;2022-12-18T16:52:25;7.60;;;4.28;;
64252;SDS011;50592;52.958;-7.470;2022-12-18T16:54:51;9.25;;;4.10;;
64252;SDS011;50592;52.958;-7.470;2022-12-18T16:57:17;6.72;;;4.35;;
64252;SDS011;50592;52.958;-7.470;2022-12-18T16:59:45;4.82;;;3.70;;
64252;SDS011;50592;52.958;-7.470;2022-12-18T17:02:14;5.05;;;4.00;;
64252;SDS011;50592;52.958;-7.470;2022-12-18T17:04:43;3.58;;;3.28;;
64252;SDS011;50592;52.958;-7.470;2022-12-18T17:07:10;4.57;;;3.10;;
64252;SDS011;50592;52.958;-7.470;2022-12-18T17:09:36;4.72;;;2.85;;
64252;SDS011;50592;52.958;-7.470;2022-12-18T17:12:02;3.10;;;2.80;;
64252;SDS011;50592;52.958;-7.470;2022-12-18T17:14:28;4.72;;;2.53;;
64252;SDS011;50592;52.958;-7.470;2022-12-18T17:16:54;3.35;;;2.55;;
64252;SDS011;50592;52.958;-7.470;2022-12-18T17:19:22;5.00;;;2.10;;
64252;SDS011;50592;52.958;-7.470;2022-12-18T17:21:49;1.83;;;1.65;;
64252;SDS011;50592;52.958;-7.470;2022-12-18T17:24:15;2.00;;;1.90;;
64252;SDS011;50592;52.958;-7.470;2022-12-18T17:26:42;2.15;;;1.77;;
64252;SDS011;50592;52.958;-7.470;2022-12-18T17:29:09;4.25;;;2.20;;